sensor_id;sensor_type;location;lat;lon;timestamp;pressure;altitude;pressure_sealevel;temperature;humidity
12475;BME280;6302;42.624;23.334;2023-06-19T00:00:29;93432.34;;;18.01;100.00
12475;BME280;6302;42.624;23.334;2023-06-19T00:02:56;93438.94;;;17.87;100.00
12475;BME280;6302;42.624;23.334;2023-06-19T00:05:23;93435.19;;;17.85;100.00
12475;BME280;6302;42.624;23.334;2023-06-19T00:07:50;93437.53;;;17.83;100.00
12475;BME280;6302;42.624;23.334;2023-06-19T00:10:17;93433.38;;;17.82;100.00
12475;BME280;6302;42.624;23.334;2023-06-19T00:12:44;93430.06;;;17.78;100.00
12475;BME280;6302;42.624;23.334;2023-06-19T00:15:11;93432.53;;;17.85;100.00
12475;BME280;6302;42.624;23.334;2023-06-19T00:17:39;93425.03;;;17.80;100.00
12475;BME280;6302;42.624;23.334;2023-06-19T00:20:07;93427.06;;;17.76;100.00
12475;BME280;6302;42.624;23.334;2023-06-19T00:22:34;93427.06;;;17.76;100.00
12475;BME280;6302;42.624;23.334;2023-06-19T00:25:01;93423.00;;;17.71;100.00
12475;BME280;6302;42.624;23.334;2023-06-19T00:27:29;93422.38;;;17.67;100.00
12475;BME280;6302;42.624;23.334;2023-06-19T00:29:56;93422.69;;;17.69;100.00
12475;BME280;6302;42.624;23.334;2023-06-19T00:32:27;93424.00;;;17.65;100.00
12475;BME280;6302;42.624;23.334;2023-06-19T00:34:55;93419.25;;;17.69;100.00
12475;BME280;6302;42.624;23.334;2023-06-19T00:37:22;93422.06;;;17.65;100.00
12475;BME280;6302;42.624;23.334;2023-06-19T00:39:48;93409.78;;;17.55;100.00
12475;BME280;6302;42.624;23.334;2023-06-19T00:42:15;93408.88;;;17.58;100.00
12475;BME280;6302;42.624;23.334;2023-06-19T00:44:42;93404.28;;;17.59;100.00
12475;BME280;6302;42.624;23.334;2023-06-19T00:47:09;93408.47;;;17.60;100.00
12475;BME280;6302;42.624;23.334;2023-06-19T00:49:36;93403.34;;;17.52;100.00
12475;BME280;6302;42.624;23.334;2023-06-19T00:52:06;93406.84;;;17.49;100.00
12475;BME280;6302;42.624;23.334;2023-06-19T00:54:33;93403.53;;;17.45;100.00
12475;BME280;6302;42.624;23.334;2023-06-19T00:57:00;93399.97;;;17.48;100.00
12475;BME280;6302;42.624;23.334;2023-06-19T00:59:27;93393.88;;;17.48;100.00
12475;BME280;6302;42.624;23.334;2023-06-19T01:01:55;93390.56;;;17.44;100.00
12475;BME280;6302;42.624;23.334;2023-06-19T01:04:24;93385.66;;;17.42;100.00
12475;BME280;6302;42.624;23.334;2023-06-19T01:06:55;93387.44;;;17.45;100.00
12475;BME280;6302;42.624;23.334;2023-06-19T01:09:29;93381.47;;;17.41;100.00
12475;BME280;6302;42.624;23.334;2023-06-19T01:12:01;93368.59;;;17.49;100.00
12475;BME280;6302;42.624;23.334;2023-06-19T01:14:36;93378.16;;;17.37;100.00
12475;BME280;6302;42.624;23.334;2023-06-19T01:17:05;93354.59;;;17.32;100.00
12475;BME280;6302;42.624;23.334;2023-06-19T01:19:33;93374.38;;;17.47;100.00
12475;BME280;6302;42.624;23.334;2023-06-19T01:22:04;93379.09;;;17.43;100.00
12475;BME280;6302;42.624;23.334;2023-06-19T01:24:31;93373.66;;;17.34;100.00
12475;BME280;6302;42.624;23.334;2023-06-19T01:26:58;93373.03;;;17.30;100.00
12475;BME280;6302;42.624;23.334;2023-06-19T01:29:25;93381.94;;;17.27;100.00
12475;BME280;6302;42.624;23.334;2023-06-19T01:31:55;93380.56;;;17.23;100.00
12475;BME280;6302;42.624;23.334;2023-06-19T01:34:27;93383.31;;;17.19;100.00
12475;BME280;6302;42.624;23.334;2023-06-19T01:36:56;93379.47;;;17.20;100.00
12475;BME280;6302;42.624;23.334;2023-06-19T01:39:25;93384.84;;;17.20;100.00
12475;BME280;6302;42.624;23.334;2023-06-19T01:41:53;93389.88;;;17.18;100.00
12475;BME280;6302;42.624;23.334;2023-06-19T01:44:20;93397.38;;;17.11;100.00
12475;BME280;6302;42.624;23.334;2023-06-19T01:46:48;93384.31;;;17.00;100.00
12475;BME280;6302;42.624;23.334;2023-06-19T01:49:15;93391.81;;;17.05;100.00
12475;BME280;6302;42.624;23.334;2023-06-19T01:51:42;93390.84;;;16.99;100.00
12475;BME280;6302;42.624;23.334;2023-06-19T01:54:09;93392.88;;;16.95;100.00
12475;BME280;6302;42.624;23.334;2023-06-19T01:56:37;93396.41;;;16.92;100.00
12475;BME280;6302;42.624;23.334;2023-06-19T01:59:04;93396.94;;;16.87;100.00
12475;BME280;6302;42.624;23.334;2023-06-19T02:01:31;93399.84;;;16.80;100.00
12475;BME280;6302;42.624;23.334;2023-06-19T02:03:58;93401.44;;;16.77;100.00
12475;BME280;6302;42.624;23.334;2023-06-19T02:06:25;93410.22;;;16.78;100.00
12475;BME280;6302;42.624;23.334;2023-06-19T02:08:52;93407.78;;;16.71;100.00
12475;BME280;6302;42.624;23.334;2023-06-19T02:11:19;93403.25;;;16.68;100.00
12475;BME280;6302;42.624;23.334;2023-06-19T02:13:47;93410.22;;;16.65;100.00
12475;BME280;6302;42.624;23.334;2023-06-19T02:16:14;93400.78;;;16.61;100.00
12475;BME280;6302;42.624;23.334;2023-06-19T02:18:41;93405.06;;;16.58;100.00
12475;BME280;6302;42.624;23.334;2023-06-19T02:21:08;93412.78;;;16.56;100.00
12475;BME280;6302;42.624;23.334;2023-06-19T02:23:36;93402.16;;;16.53;100.00
12475;BME280;6302;42.624;23.334;2023-06-19T02:26:03;93408.03;;;16.48;100.00
12475;BME280;6302;42.624;23.334;2023-06-19T02:28:30;93408.47;;;16.46;100.00
12475;BME280;6302;42.624;23.334;2023-06-19T02:30:58;93404.91;;;16.37;100.00
12475;BME280;6302;42.624;23.334;2023-06-19T02:33:24;93413.47;;;16.32;100.00
12475;BME280;6302;42.624;23.334;2023-06-19T02:35:51;93408.94;;;16.28;100.00
12475;BME280;6302;42.624;23.334;2023-06-19T02:38:24;93411.31;;;16.26;100.00
12475;BME280;6302;42.624;23.334;2023-06-19T02:40:51;93416.31;;;16.24;100.00
12475;BME280;6302;42.624;23.334;2023-06-19T02:43:18;93406.16;;;16.19;100.00
12475;BME280;6302;42.624;23.334;2023-06-19T02:45:45;93415.66;;;16.20;100.00
12475;BME280;6302;42.624;23.334;2023-06-19T02:48:15;93412.66;;;16.18;100.00
12475;BME280;6302;42.624;23.334;2023-06-19T02:50:45;93423.34;;;16.18;100.00
12475;BME280;6302;42.624;23.334;2023-06-19T02:53:12;93426.03;;;16.18;100.00
12475;BME280;6302;42.624;23.334;2023-06-19T02:55:38;93432.53;;;16.17;100.00
12475;BME280;6302;42.624;23.334;2023-06-19T02:58:05;93426.03;;;16.18;100.00
12475;BME280;6302;42.624;23.334;2023-06-19T03:00:32;93429.03;;;16.20;100.00
12475;BME280;6302;42.624;23.334;2023-06-19T03:02:59;93430.53;;;16.21;100.00
12475;BME280;6302;42.624;23.334;2023-06-19T03:05:27;93429.34;;;16.22;100.00
12475;BME280;6302;42.624;23.334;2023-06-19T03:07:53;93430.88;;;16.23;100.00
12475;BME280;6302;42.624;23.334;2023-06-19T03:10:20;93425.50;;;16.23;100.00
12475;BME280;6302;42.624;23.334;2023-06-19T03:12:47;93419.31;;;16.26;100.00
12475;BME280;6302;42.624;23.334;2023-06-19T03:15:14;93399.06;;;16.13;100.00
12475;BME280;6302;42.624;23.334;2023-06-19T03:17:41;93421.78;;;16.34;100.00
12475;BME280;6302;42.624;23.334;2023-06-19T03:20:08;93421.28;;;16.39;100.00
12475;BME280;6302;42.624;23.334;2023-06-19T03:22:39;93431.13;;;16.42;100.00
12475;BME280;6302;42.624;23.334;2023-06-19T03:25:07;93421.91;;;16.43;100.00
12475;BME280;6302;42.624;23.334;2023-06-19T03:27:34;93422.16;;;16.48;100.00
12475;BME280;6302;42.624;23.334;2023-06-19T03:30:02;93421.72;;;16.50;100.00
12475;BME280;6302;42.624;23.334;2023-06-19T03:32:31;93416.19;;;16.57;100.00
12475;BME280;6302;42.624;23.334;2023-06-19T03:34:58;93415.66;;;16.62;100.00
12475;BME280;6302;42.624;23.334;2023-06-19T03:37:25;93427.66;;;16.70;100.00
12475;BME280;6302;42.624;23.334;2023-06-19T03:39:53;93419.88;;;16.75;100.00
12475;BME280;6302;42.624;23.334;2023-06-19T03:42:20;93422.75;;;16.81;100.00
12475;BME280;6302;42.624;23.334;2023-06-19T03:44:47;93425.22;;;16.88;100.00
12475;BME280;6302;42.624;23.334;2023-06-19T03:47:14;93424.69;;;16.93;100.00
12475;BME280;6302;42.624;23.334;2023-06-19T03:49:41;93422.97;;;16.99;100.00
12475;BME280;6302;42.624;23.334;2023-06-19T03:52:08;93422.75;;;17.06;100.00
12475;BME280;6302;42.624;23.334;2023-06-19T03:54:35;93415.69;;;17.12;100.00
12475;BME280;6302;42.624;23.334;2023-06-19T03:57:04;93424.69;;;17.18;100.00
12475;BME280;6302;42.624;23.334;2023-06-19T03:59:34;93416.09;;;17.23;100.00
12475;BME280;6302;42.624;23.334;2023-06-19T04:02:01;93417.38;;;17.31;100.00
12475;BME280;6302;42.624;23.334;2023-06-19T04:04:28;93420.25;;;17.37;100.00
12475;BME280;6302;42.624;23.334;2023-06-19T04:06:55;93422.16;;;17.49;100.00
12475;BME280;6302;42.624;23.334;2023-06-19T04:09:22;93416.81;;;17.49;100.00
12475;BME280;6302;42.624;23.334;2023-06-19T04:11:49;93423.16;;;17.55;100.00
12475;BME280;6302;42.624;23.334;2023-06-19T04:14:17;93417.66;;;17.59;100.00
12475;BME280;6302;42.624;23.334;2023-06-19T04:16:44;93421.00;;;17.63;100.00
12475;BME280;6302;42.624;23.334;2023-06-19T04:19:11;93419.81;;;17.64;100.00
12475;BME280;6302;42.624;23.334;2023-06-19T04:21:37;93426.53;;;17.68;100.00
12475;BME280;6302;42.624;23.334;2023-06-19T04:24:04;93422.00;;;17.78;100.00
12475;BME280;6302;42.624;23.334;2023-06-19T04:26:34;93420.03;;;17.91;100.00
12475;BME280;6302;42.624;23.334;2023-06-19T04:29:01;93425.81;;;18.02;100.00
12475;BME280;6302;42.624;23.334;2023-06-19T04:31:29;93421.69;;;18.10;100.00
12475;BME280;6302;42.624;23.334;2023-06-19T04:33:56;93423.19;;;18.11;100.00
12475;BME280;6302;42.624;23.334;2023-06-19T04:36:23;93426.81;;;18.17;100.00
12475;BME280;6302;42.624;23.334;2023-06-19T04:38:49;93421.94;;;18.25;100.00
12475;BME280;6302;42.624;23.334;2023-06-19T04:41:17;93426.88;;;18.26;100.00
12475;BME280;6302;42.624;23.334;2023-06-19T04:43:44;93418.47;;;18.37;100.00
12475;BME280;6302;42.624;23.334;2023-06-19T04:46:11;93417.16;;;18.41;100.00
12475;BME280;6302;42.624;23.334;2023-06-19T04:48:39;93420.84;;;18.56;100.00
12475;BME280;6302;42.624;23.334;2023-06-19T04:51:06;93424.63;;;18.68;100.00
12475;BME280;6302;42.624;23.334;2023-06-19T04:53:34;93428.38;;;18.70;100.00
12475;BME280;6302;42.624;23.334;2023-06-19T04:56:02;93427.00;;;18.66;100.00
12475;BME280;6302;42.624;23.334;2023-06-19T04:58:32;93420.31;;;18.70;100.00
12475;BME280;6302;42.624;23.334;2023-06-19T05:00:59;93425.44;;;18.77;100.00
12475;BME280;6302;42.624;23.334;2023-06-19T05:03:25;93425.81;;;18.98;100.00
12475;BME280;6302;42.624;23.334;2023-06-19T05:05:53;93420.09;;;19.17;100.00
12475;BME280;6302;42.624;23.334;2023-06-19T05:08:20;93419.69;;;19.28;100.00
12475;BME280;6302;42.624;23.334;2023-06-19T05:10:47;93432.78;;;19.26;100.00
12475;BME280;6302;42.624;23.334;2023-06-19T05:13:14;93427.78;;;19.37;100.00
12475;BME280;6302;42.624;23.334;2023-06-19T05:15:41;93423.31;;;19.43;100.00
12475;BME280;6302;42.624;23.334;2023-06-19T05:18:08;93428.94;;;19.36;100.00
12475;BME280;6302;42.624;23.334;2023-06-19T05:20:35;93432.28;;;19.49;100.00
12475;BME280;6302;42.624;23.334;2023-06-19T05:23:03;93431.41;;;19.52;100.00
12475;BME280;6302;42.624;23.334;2023-06-19T05:25:31;93436.94;;;19.58;100.00
12475;BME280;6302;42.624;23.334;2023-06-19T05:27:58;93439.06;;;19.63;100.00
12475;BME280;6302;42.624;23.334;2023-06-19T05:30:28;93446.78;;;19.61;100.00
12475;BME280;6302;42.624;23.334;2023-06-19T05:32:55;93441.88;;;19.59;100.00
12475;BME280;6302;42.624;23.334;2023-06-19T05:35:22;93448.47;;;19.67;100.00
12475;BME280;6302;42.624;23.334;2023-06-19T05:37:49;93456.53;;;19.67;100.00
12475;BME280;6302;42.624;23.334;2023-06-19T05:40:17;93460.88;;;19.74;100.00
12475;BME280;6302;42.624;23.334;2023-06-19T05:42:44;93458.66;;;19.81;100.00
12475;BME280;6302;42.624;23.334;2023-06-19T05:45:11;93461.03;;;19.88;100.00
12475;BME280;6302;42.624;23.334;2023-06-19T05:47:38;93456.41;;;19.89;100.00
12475;BME280;6302;42.624;23.334;2023-06-19T05:50:06;93457.75;;;19.93;100.00
12475;BME280;6302;42.624;23.334;2023-06-19T05:52:33;93445.53;;;20.01;100.00
12475;BME280;6302;42.624;23.334;2023-06-19T05:55:00;93449.25;;;19.95;100.00
12475;BME280;6302;42.624;23.334;2023-06-19T05:57:29;93452.97;;;19.97;100.00
12475;BME280;6302;42.624;23.334;2023-06-19T05:59:56;93454.63;;;19.95;100.00
12475;BME280;6302;42.624;23.334;2023-06-19T06:02:23;93458.97;;;20.01;100.00
12475;BME280;6302;42.624;23.334;2023-06-19T06:04:54;93457.47;;;20.00;100.00
12475;BME280;6302;42.624;23.334;2023-06-19T06:07:21;93456.72;;;20.00;100.00
12475;BME280;6302;42.624;23.334;2023-06-19T06:09:48;93452.41;;;20.21;100.00
12475;BME280;6302;42.624;23.334;2023-06-19T06:12:15;93463.19;;;20.30;100.00
12475;BME280;6302;42.624;23.334;2023-06-19T06:14:46;93471.25;;;20.21;100.00
12475;BME280;6302;42.624;23.334;2023-06-19T06:17:13;93463.91;;;19.94;100.00
12475;BME280;6302;42.624;23.334;2023-06-19T06:19:40;93466.44;;;20.06;100.00
12475;BME280;6302;42.624;23.334;2023-06-19T06:22:11;93469.63;;;20.23;100.00
12475;BME280;6302;42.624;23.334;2023-06-19T06:24:38;93469.19;;;20.34;100.00
12475;BME280;6302;42.624;23.334;2023-06-19T06:27:06;93469.63;;;20.32;100.00
12475;BME280;6302;42.624;23.334;2023-06-19T06:29:33;93468.13;;;20.40;100.00
12475;BME280;6302;42.624;23.334;2023-06-19T06:32:05;93476.34;;;20.46;100.00
12475;BME280;6302;42.624;23.334;2023-06-19T06:34:32;93474.41;;;20.46;100.00
12475;BME280;6302;42.624;23.334;2023-06-19T06:37:00;93475.47;;;20.49;100.00
12475;BME280;6302;42.624;23.334;2023-06-19T06:39:30;93476.06;;;20.44;100.00
12475;BME280;6302;42.624;23.334;2023-06-19T06:41:56;93472.75;;;20.58;100.00
12475;BME280;6302;42.624;23.334;2023-06-19T06:44:23;93481.41;;;20.80;100.00
12475;BME280;6302;42.624;23.334;2023-06-19T06:46:50;93397.56;;;20.27;97.98
12475;BME280;6302;42.624;23.334;2023-06-19T06:49:18;93483.50;;;20.76;98.01
12475;BME280;6302;42.624;23.334;2023-06-19T06:51:45;93490.38;;;20.77;99.55
12475;BME280;6302;42.624;23.334;2023-06-19T06:54:12;93485.00;;;20.77;100.00
12475;BME280;6302;42.624;23.334;2023-06-19T06:56:40;93486.50;;;20.78;100.00
12475;BME280;6302;42.624;23.334;2023-06-19T06:59:07;93480.06;;;20.75;97.55
12475;BME280;6302;42.624;23.334;2023-06-19T07:01:35;93473.75;;;20.88;100.00
12475;BME280;6302;42.624;23.334;2023-06-19T07:04:02;93476.59;;;20.93;100.00
12475;BME280;6302;42.624;23.334;2023-06-19T07:06:31;93480.00;;;21.03;97.80
12475;BME280;6302;42.624;23.334;2023-06-19T07:08:58;93486.16;;;21.03;94.81
12475;BME280;6302;42.624;23.334;2023-06-19T07:11:25;93497.25;;;21.05;94.48
12475;BME280;6302;42.624;23.334;2023-06-19T07:13:51;93479.72;;;21.01;94.88
12475;BME280;6302;42.624;23.334;2023-06-19T07:16:18;93486.75;;;21.07;97.14
12475;BME280;6302;42.624;23.334;2023-06-19T07:18:45;93481.22;;;21.11;93.96
12475;BME280;6302;42.624;23.334;2023-06-19T07:21:13;93486.59;;;21.11;93.36
12475;BME280;6302;42.624;23.334;2023-06-19T07:23:44;93474.00;;;21.17;93.56
12475;BME280;6302;42.624;23.334;2023-06-19T07:26:13;93490.72;;;21.30;93.35
12475;BME280;6302;42.624;23.334;2023-06-19T07:28:40;93485.16;;;21.33;93.13
12475;BME280;6302;42.624;23.334;2023-06-19T07:31:09;93490.56;;;21.33;93.74
12475;BME280;6302;42.624;23.334;2023-06-19T07:33:37;93493.38;;;21.39;89.95
12475;BME280;6302;42.624;23.334;2023-06-19T07:36:05;93491.25;;;21.43;89.97
12475;BME280;6302;42.624;23.334;2023-06-19T07:38:33;93490.34;;;21.55;93.33
12475;BME280;6302;42.624;23.334;2023-06-19T07:41:02;93499.84;;;21.65;93.27
12475;BME280;6302;42.624;23.334;2023-06-19T07:43:29;93493.56;;;21.68;91.26
12475;BME280;6302;42.624;23.334;2023-06-19T07:45:56;93498.50;;;21.70;93.29
12475;BME280;6302;42.624;23.334;2023-06-19T07:48:22;93495.50;;;21.68;90.35
12475;BME280;6302;42.624;23.334;2023-06-19T07:50:49;93490.72;;;21.63;93.40
12475;BME280;6302;42.624;23.334;2023-06-19T07:53:16;93487.03;;;21.51;89.49
12475;BME280;6302;42.624;23.334;2023-06-19T07:55:43;93489.88;;;21.57;89.03
12475;BME280;6302;42.624;23.334;2023-06-19T07:58:11;93497.34;;;21.62;91.51
12475;BME280;6302;42.624;23.334;2023-06-19T08:00:38;93495.53;;;21.59;90.54
12475;BME280;6302;42.624;23.334;2023-06-19T08:03:05;93486.56;;;21.62;90.93
12475;BME280;6302;42.624;23.334;2023-06-19T08:05:32;93486.78;;;21.73;91.82
12475;BME280;6302;42.624;23.334;2023-06-19T08:07:59;93494.84;;;21.82;90.82
12475;BME280;6302;42.624;23.334;2023-06-19T08:10:27;93494.25;;;21.78;87.70
12475;BME280;6302;42.624;23.334;2023-06-19T08:12:53;93488.56;;;21.85;82.65
12475;BME280;6302;42.624;23.334;2023-06-19T08:15:21;93499.59;;;21.96;86.67
12475;BME280;6302;42.624;23.334;2023-06-19T08:17:49;93494.47;;;21.98;84.10
12475;BME280;6302;42.624;23.334;2023-06-19T08:20:16;93489.31;;;22.09;84.89
12475;BME280;6302;42.624;23.334;2023-06-19T08:22:42;93481.25;;;22.24;79.20
12475;BME280;6302;42.624;23.334;2023-06-19T08:25:09;93486.31;;;22.31;80.39
12475;BME280;6302;42.624;23.334;2023-06-19T08:27:36;93479.16;;;22.42;74.24
12475;BME280;6302;42.624;23.334;2023-06-19T08:30:03;93471.44;;;22.50;76.15
12475;BME280;6302;42.624;23.334;2023-06-19T08:32:31;93475.56;;;22.60;77.14
12475;BME280;6302;42.624;23.334;2023-06-19T08:35:00;93482.28;;;22.64;72.00
12475;BME280;6302;42.624;23.334;2023-06-19T08:37:26;93488.66;;;22.76;74.28
12475;BME280;6302;42.624;23.334;2023-06-19T08:39:53;93482.50;;;22.76;70.86
12475;BME280;6302;42.624;23.334;2023-06-19T08:42:20;93490.72;;;22.81;74.16
12475;BME280;6302;42.624;23.334;2023-06-19T08:44:48;93478.59;;;22.77;71.45
12475;BME280;6302;42.624;23.334;2023-06-19T08:47:15;93485.88;;;22.85;67.30
12475;BME280;6302;42.624;23.334;2023-06-19T08:49:43;93477.50;;;22.98;71.15
12475;BME280;6302;42.624;23.334;2023-06-19T08:52:10;93480.56;;;23.05;61.28
12475;BME280;6302;42.624;23.334;2023-06-19T08:54:37;93477.00;;;23.14;64.69
12475;BME280;6302;42.624;23.334;2023-06-19T08:57:10;93475.31;;;23.31;64.57
12475;BME280;6302;42.624;23.334;2023-06-19T08:59:37;93478.97;;;23.43;65.95
12475;BME280;6302;42.624;23.334;2023-06-19T09:02:04;93476.19;;;23.37;64.30
12475;BME280;6302;42.624;23.334;2023-06-19T09:04:31;93487.47;;;23.50;62.91
12475;BME280;6302;42.624;23.334;2023-06-19T09:07:01;93478.31;;;23.48;62.67
12475;BME280;6302;42.624;23.334;2023-06-19T09:09:28;93480.09;;;23.36;59.04
12475;BME280;6302;42.624;23.334;2023-06-19T09:12:00;93474.88;;;23.18;63.41
12475;BME280;6302;42.624;23.334;2023-06-19T09:14:35;93481.69;;;23.28;60.82
12475;BME280;6302;42.624;23.334;2023-06-19T09:17:03;93475.78;;;23.44;60.21
12475;BME280;6302;42.624;23.334;2023-06-19T09:19:30;93478.22;;;23.42;58.98
12475;BME280;6302;42.624;23.334;2023-06-19T09:22:02;93481.75;;;23.48;58.15
12475;BME280;6302;42.624;23.334;2023-06-19T09:24:35;93483.56;;;23.71;59.08
12475;BME280;6302;42.624;23.334;2023-06-19T09:27:06;93480.59;;;23.69;57.16
12475;BME280;6302;42.624;23.334;2023-06-19T09:29:36;93484.25;;;23.66;55.96
12475;BME280;6302;42.624;23.334;2023-06-19T09:32:14;93478.56;;;23.64;57.76
12475;BME280;6302;42.624;23.334;2023-06-19T09:34:41;93470.47;;;23.84;56.86
12475;BME280;6302;42.624;23.334;2023-06-19T09:37:09;93471.91;;;24.00;60.75
12475;BME280;6302;42.624;23.334;2023-06-19T09:39:37;93466.44;;;24.15;54.47
12475;BME280;6302;42.624;23.334;2023-06-19T09:42:06;93472.63;;;24.35;56.64
12475;BME280;6302;42.624;23.334;2023-06-19T09:44:39;93481.22;;;24.34;52.15
12475;BME280;6302;42.624;23.334;2023-06-19T09:47:14;93475.72;;;24.48;54.97
12475;BME280;6302;42.624;23.334;2023-06-19T09:49:48;93477.25;;;24.55;53.56
12475;BME280;6302;42.624;23.334;2023-06-19T09:52:19;93477.00;;;24.53;54.44
12475;BME280;6302;42.624;23.334;2023-06-19T09:54:47;93465.66;;;24.49;53.74
12475;BME280;6302;42.624;23.334;2023-06-19T09:57:15;93470.91;;;24.58;54.67
12475;BME280;6302;42.624;23.334;2023-06-19T09:59:43;93470.81;;;24.73;55.50
12475;BME280;6302;42.624;23.334;2023-06-19T10:02:13;93475.09;;;24.59;54.36
12475;BME280;6302;42.624;23.334;2023-06-19T10:04:44;93459.25;;;24.52;61.88
12475;BME280;6302;42.624;23.334;2023-06-19T10:07:17;93461.53;;;24.59;57.88
12475;BME280;6302;42.624;23.334;2023-06-19T10:10:00;93458.56;;;24.77;61.72
12475;BME280;6302;42.624;23.334;2023-06-19T10:12:37;93461.66;;;24.70;56.10
12475;BME280;6302;42.624;23.334;2023-06-19T10:15:12;93453.38;;;24.53;58.33
12475;BME280;6302;42.624;23.334;2023-06-19T10:17:48;93446.78;;;24.60;57.66
12475;BME280;6302;42.624;23.334;2023-06-19T10:20:21;93443.88;;;24.64;58.21
12475;BME280;6302;42.624;23.334;2023-06-19T10:22:56;93454.75;;;24.69;60.68
12475;BME280;6302;42.624;23.334;2023-06-19T10:25:24;93444.34;;;24.42;56.59
12475;BME280;6302;42.624;23.334;2023-06-19T10:27:51;93445.59;;;24.41;59.46
12475;BME280;6302;42.624;23.334;2023-06-19T10:30:20;93440.94;;;24.41;54.34
12475;BME280;6302;42.624;23.334;2023-06-19T10:32:48;93448.56;;;24.43;52.57
12475;BME280;6302;42.624;23.334;2023-06-19T10:35:17;93451.00;;;24.41;58.26
12475;BME280;6302;42.624;23.334;2023-06-19T10:37:46;93439.31;;;24.29;54.30
12475;BME280;6302;42.624;23.334;2023-06-19T10:40:15;93446.81;;;24.20;52.47
12475;BME280;6302;42.624;23.334;2023-06-19T10:42:42;93448.09;;;24.44;54.87
12475;BME280;6302;42.624;23.334;2023-06-19T10:45:10;93451.50;;;24.65;53.29
12475;BME280;6302;42.624;23.334;2023-06-19T10:47:39;93444.88;;;24.66;47.74
12475;BME280;6302;42.624;23.334;2023-06-19T10:50:10;93445.00;;;24.77;53.49
12475;BME280;6302;42.624;23.334;2023-06-19T10:52:40;93436.69;;;24.86;55.21
12475;BME280;6302;42.624;23.334;2023-06-19T10:55:08;93438.91;;;25.13;53.13
12475;BME280;6302;42.624;23.334;2023-06-19T10:57:37;93443.91;;;25.20;46.77
12475;BME280;6302;42.624;23.334;2023-06-19T11:00:05;93441.97;;;25.27;47.85
12475;BME280;6302;42.624;23.334;2023-06-19T11:02:37;93437.44;;;25.12;51.50
12475;BME280;6302;42.624;23.334;2023-06-19T11:05:06;93430.06;;;25.18;52.43
12475;BME280;6302;42.624;23.334;2023-06-19T11:07:33;93430.81;;;25.45;54.55
12475;BME280;6302;42.624;23.334;2023-06-19T11:10:02;93427.69;;;25.57;50.79
12475;BME280;6302;42.624;23.334;2023-06-19T11:12:29;93432.09;;;25.23;51.80
12475;BME280;6302;42.624;23.334;2023-06-19T11:14:57;93429.28;;;25.44;51.46
12475;BME280;6302;42.624;23.334;2023-06-19T11:17:24;93437.75;;;25.51;50.91
12475;BME280;6302;42.624;23.334;2023-06-19T11:19:51;93425.69;;;25.58;54.74
12475;BME280;6302;42.624;23.334;2023-06-19T11:22:17;93427.31;;;25.81;57.58
12475;BME280;6302;42.624;23.334;2023-06-19T11:24:45;93428.56;;;25.80;56.64
12475;BME280;6302;42.624;23.334;2023-06-19T11:27:19;93428.03;;;25.76;53.83
12475;BME280;6302;42.624;23.334;2023-06-19T11:29:56;93422.88;;;25.83;55.16
12475;BME280;6302;42.624;23.334;2023-06-19T11:32:28;93419.22;;;25.92;56.05
12475;BME280;6302;42.624;23.334;2023-06-19T11:34:57;93416.06;;;26.05;58.40
12475;BME280;6302;42.624;23.334;2023-06-19T11:37:24;93427.09;;;25.90;58.62
12475;BME280;6302;42.624;23.334;2023-06-19T11:39:51;93414.03;;;25.89;59.66
12475;BME280;6302;42.624;23.334;2023-06-19T11:42:18;93424.72;;;25.61;59.01
12475;BME280;6302;42.624;23.334;2023-06-19T11:44:54;93414.13;;;25.63;58.00
12475;BME280;6302;42.624;23.334;2023-06-19T11:47:23;93409.72;;;25.71;57.36
12475;BME280;6302;42.624;23.334;2023-06-19T11:49:50;93409.03;;;25.76;59.63
12475;BME280;6302;42.624;23.334;2023-06-19T11:52:17;93410.25;;;25.75;60.07
12475;BME280;6302;42.624;23.334;2023-06-19T11:54:44;93401.59;;;25.71;59.62
12475;BME280;6302;42.624;23.334;2023-06-19T11:57:11;93400.94;;;25.87;60.39
12475;BME280;6302;42.624;23.334;2023-06-19T11:59:38;93407.69;;;25.55;58.05
12475;BME280;6302;42.624;23.334;2023-06-19T12:02:06;93402.00;;;25.58;60.76
12475;BME280;6302;42.624;23.334;2023-06-19T12:04:34;93392.81;;;25.45;60.62
12475;BME280;6302;42.624;23.334;2023-06-19T12:07:02;93400.75;;;25.54;63.69
12475;BME280;6302;42.624;23.334;2023-06-19T12:09:29;93400.75;;;25.54;63.21
12475;BME280;6302;42.624;23.334;2023-06-19T12:11:57;93396.28;;;25.45;61.07
12475;BME280;6302;42.624;23.334;2023-06-19T12:14:24;93392.94;;;25.30;61.78
12475;BME280;6302;42.624;23.334;2023-06-19T12:16:51;93405.66;;;25.18;61.80
12475;BME280;6302;42.624;23.334;2023-06-19T12:19:18;93395.81;;;25.21;59.93
12475;BME280;6302;42.624;23.334;2023-06-19T12:21:47;93399.81;;;25.26;63.24
12475;BME280;6302;42.624;23.334;2023-06-19T12:24:13;93408.06;;;25.05;61.76
12475;BME280;6302;42.624;23.334;2023-06-19T12:26:40;93390.28;;;25.04;65.65
12475;BME280;6302;42.624;23.334;2023-06-19T12:29:07;93391.94;;;25.28;63.37
12475;BME280;6302;42.624;23.334;2023-06-19T12:31:34;93382.91;;;25.42;64.91
12475;BME280;6302;42.624;23.334;2023-06-19T12:34:02;93392.34;;;25.52;66.85
12475;BME280;6302;42.624;23.334;2023-06-19T12:36:29;93384.72;;;25.56;65.01
12475;BME280;6302;42.624;23.334;2023-06-19T12:38:59;93393.22;;;25.74;66.39
12475;BME280;6302;42.624;23.334;2023-06-19T12:41:27;93390.09;;;25.87;64.92
12475;BME280;6302;42.624;23.334;2023-06-19T12:43:54;93389.00;;;25.73;61.48
12475;BME280;6302;42.624;23.334;2023-06-19T12:46:21;93385.66;;;25.95;61.75
12475;BME280;6302;42.624;23.334;2023-06-19T12:48:48;93381.50;;;26.05;62.51
12475;BME280;6302;42.624;23.334;2023-06-19T12:51:16;93389.16;;;26.07;60.00
12475;BME280;6302;42.624;23.334;2023-06-19T12:53:43;93382.03;;;26.09;60.58
12475;BME280;6302;42.624;23.334;2023-06-19T12:56:12;93385.94;;;26.03;58.54
12475;BME280;6302;42.624;23.334;2023-06-19T12:58:38;93389.47;;;26.20;60.75